createdAt,value
2022-09-03T00:04:28.953Z,98934.56
2022-09-03T00:09:35.490Z,98930.91
2022-09-03T00:14:41.026Z,98926.38
2022-09-03T00:19:48.762Z,98926.22
2022-09-03T00:24:51.666Z,98929.53
2022-09-03T00:29:56.569Z,98926.13
2022-09-03T00:35:05.371Z,98921.00
2022-09-03T00:40:15.198Z,98924.53
2022-09-03T00:45:28.954Z,98925.25
2022-09-03T00:50:42.585Z,98926.84
2022-09-03T00:55:51.241Z,98928.78
2022-09-03T01:00:53.969Z,98914.91
2022-09-03T01:06:07.159Z,98925.44
2022-09-03T01:11:20.001Z,98912.84
2022-09-03T01:16:27.990Z,98916.47
2022-09-03T01:21:47.027Z,98913.94
2022-09-03T01:27:11.035Z,98909.56
2022-09-03T01:32:18.403Z,98911.78
2022-09-03T01:37:28.681Z,98908.06
2022-09-03T01:42:43.891Z,98908.66
2022-09-03T01:47:57.730Z,98906.09
2022-09-03T01:53:04.977Z,98904.53
2022-09-03T01:58:12.347Z,98899.72
2022-09-03T02:03:17.470Z,98900.78
2022-09-03T02:08:20.879Z,98907.72
2022-09-03T02:13:25.742Z,98901.50
2022-09-03T02:18:31.890Z,98899.38
2022-09-03T02:23:34.815Z,98899.63
2022-09-03T02:28:37.744Z,98898.22
2022-09-03T02:33:45.546Z,98899.72
2022-09-03T02:38:48.545Z,98905.59
2022-09-03T02:43:55.076Z,98892.81
2022-09-03T02:48:59.191Z,98902.91
2022-09-03T02:54:01.991Z,98896.91
2022-09-03T02:59:05.406Z,98891.41
2022-09-03T03:04:09.593Z,98891.66
2022-09-03T03:09:12.305Z,98887.53
2022-09-03T03:14:15.345Z,98902.06
2022-09-03T03:19:19.527Z,98885.31
2022-09-03T03:24:22.247Z,98885.75
2022-09-03T03:29:26.109Z,98886.00
2022-09-03T03:34:30.180Z,98878.75
2022-09-03T03:39:32.903Z,98890.91
2022-09-03T03:44:35.644Z,98877.66
2022-09-03T03:49:40.047Z,98880.56
2022-09-03T03:54:42.737Z,98876.84
2022-09-03T03:59:45.471Z,98877.75
2022-09-03T04:04:49.509Z,98871.19
2022-09-03T04:09:52.277Z,98864.66
2022-09-03T04:14:54.983Z,98872.13
2022-09-03T04:19:59.089Z,98872.25
2022-09-03T04:25:02.187Z,98866.84
2022-09-03T04:30:05.661Z,98857.97
2022-09-03T04:35:10.330Z,98857.78
2022-09-03T04:40:13.041Z,98866.50
2022-09-03T04:45:19.529Z,98863.75
2022-09-03T04:50:23.665Z,98864.44
2022-09-03T04:55:35.944Z,98876.16
2022-09-03T05:00:38.948Z,98874.88
2022-09-03T05:05:43.018Z,98878.97
2022-09-03T05:10:45.701Z,98873.94
2022-09-03T05:15:48.358Z,98872.72
2022-09-03T05:20:59.642Z,98875.22
2022-09-03T05:26:03.678Z,98874.97
2022-09-03T05:31:08.212Z,98872.41
2022-09-03T05:36:13.996Z,98879.91
2022-09-03T05:41:18.995Z,98866.63
2022-09-03T05:46:21.991Z,98870.09
2022-09-03T05:51:26.179Z,98874.09
2022-09-03T05:56:30.738Z,98879.16
2022-09-03T06:01:34.900Z,98877.53
2022-09-03T06:06:40.318Z,98879.97
2022-09-03T06:11:43.680Z,98883.38
2022-09-03T06:16:49.406Z,98887.28
2022-09-03T06:21:53.590Z,98887.75
2022-09-03T06:26:56.479Z,98887.41
2022-09-03T06:31:59.435Z,98892.22
2022-09-03T06:37:03.491Z,98883.88
2022-09-03T06:42:06.853Z,98884.41
2022-09-03T06:47:12.409Z,98885.31
2022-09-03T06:52:16.502Z,98888.59
2022-09-03T06:57:19.281Z,98889.97
2022-09-03T07:02:22.911Z,98884.00
2022-09-03T07:07:27.012Z,98889.97
2022-09-03T07:12:29.812Z,98889.91
2022-09-03T07:17:32.632Z,98887.44
2022-09-03T07:22:37.085Z,98888.63
2022-09-03T07:27:39.846Z,98901.28
2022-09-03T07:32:42.518Z,98899.94
2022-09-03T07:37:46.658Z,98902.56
2022-09-03T07:42:54.512Z,98900.59
2022-09-03T07:47:57.948Z,98902.41
2022-09-03T07:53:02.043Z,98901.00
2022-09-03T07:58:04.803Z,98901.25
2022-09-03T08:03:08.744Z,98904.28
2022-09-03T08:08:15.525Z,98913.78
2022-09-03T08:13:19.309Z,98907.50
2022-09-03T08:18:22.824Z,98913.31
2022-09-03T08:23:27.258Z,98913.28
2022-09-03T08:28:30.199Z,98926.78
2022-09-03T08:33:38.606Z,98920.78
2022-09-03T08:38:46.129Z,98929.09
2022-09-03T08:44:08.790Z,98930.63
2022-09-03T08:49:14.341Z,98929.84
2022-09-03T08:54:18.722Z,98924.13
2022-09-03T08:59:22.358Z,98929.16
2022-09-03T09:04:45.091Z,98935.78
2022-09-03T09:09:54.151Z,98932.50
2022-09-03T09:15:07.489Z,98926.31
2022-09-03T09:20:17.099Z,98938.13
2022-09-03T09:25:23.214Z,98930.53
2022-09-03T09:30:25.969Z,98931.44
2022-09-03T09:35:29.104Z,98922.63
2022-09-03T09:40:34.884Z,98930.84
2022-09-03T09:45:40.727Z,98925.41
2022-09-03T09:50:43.467Z,98925.75
2022-09-03T09:55:55.134Z,98924.13
2022-09-03T10:01:22.276Z,98924.72
2022-09-03T10:06:43.483Z,98935.66
2022-09-03T10:11:51.211Z,98933.28
2022-09-03T10:16:58.395Z,98941.03
2022-09-03T10:22:06.031Z,98942.97
2022-09-03T10:27:12.540Z,98950.75
2022-09-03T10:32:23.822Z,98949.47
2022-09-03T10:37:31.004Z,98948.53
2022-09-03T10:42:46.534Z,98947.09
2022-09-03T10:48:12.037Z,98946.88
2022-09-03T10:53:21.993Z,98945.69
2022-09-03T10:58:39.069Z,98954.28
2022-09-03T11:03:46.756Z,98949.59
2022-09-03T11:08:54.845Z,98953.34
2022-09-03T11:14:01.565Z,98949.78
2022-09-03T11:19:06.367Z,98945.19
2022-09-03T11:24:14.009Z,98941.03
2022-09-03T11:29:21.970Z,98942.38
2022-09-03T11:34:32.461Z,98939.16
2022-09-03T11:39:37.560Z,98927.34
2022-09-03T11:44:51.248Z,98916.84
2022-09-03T11:50:06.701Z,98918.06
2022-09-03T11:55:09.819Z,98905.53
2022-09-03T12:00:18.530Z,98906.88
2022-09-03T12:05:31.098Z,98909.66
2022-09-03T12:10:39.743Z,98912.94
2022-09-03T12:15:57.086Z,98915.50
2022-09-03T12:21:05.109Z,98912.50
2022-09-03T12:26:14.737Z,98907.00
2022-09-03T12:31:23.605Z,98897.72
2022-09-03T12:36:27.054Z,98904.75
2022-09-03T12:41:32.476Z,98895.34
2022-09-03T12:46:36.686Z,98896.91
2022-09-03T12:51:51.055Z,98894.47
2022-09-03T12:56:57.707Z,98894.97
2022-09-03T13:02:04.612Z,98893.97
2022-09-03T13:07:09.622Z,98889.56
2022-09-03T13:12:22.776Z,98882.59
2022-09-03T13:17:39.634Z,98887.25
2022-09-03T13:22:51.562Z,98883.03
2022-09-03T13:28:02.473Z,98885.94
2022-09-03T13:33:10.519Z,98868.09
2022-09-03T13:38:22.945Z,98868.91
2022-09-03T13:43:31.260Z,98863.69
2022-09-03T13:48:57.180Z,98864.91
2022-09-03T13:54:06.095Z,98860.03
2022-09-03T13:59:14.653Z,98863.97
2022-09-03T14:04:23.992Z,98868.88
2022-09-03T14:09:35.027Z,98869.69
2022-09-03T14:14:42.772Z,98872.47
2022-09-03T14:19:50.132Z,98868.38
2022-09-03T14:24:56.789Z,98867.69
2022-09-03T14:30:01.730Z,98872.53
2022-09-03T14:35:18.523Z,98869.53
2022-09-03T14:40:26.585Z,98874.69
2022-09-03T14:45:52.950Z,98882.63
2022-09-03T14:51:13.681Z,98880.47
2022-09-03T14:56:25.924Z,98870.31
2022-09-03T15:01:31.439Z,98876.25
2022-09-03T15:06:51.155Z,98878.16
2022-09-03T15:11:56.461Z,98878.97
2022-09-03T15:17:01.646Z,98884.38
2022-09-03T15:22:15.054Z,98887.16
2022-09-03T15:27:37.382Z,98881.88
2022-09-03T15:33:03.481Z,98871.84
2022-09-03T15:38:11.137Z,98869.81
2022-09-03T15:43:19.413Z,98879.38
2022-09-03T15:48:27.941Z,98886.31
2022-09-03T15:53:36.096Z,98880.97
2022-09-03T15:58:43.320Z,98890.41
2022-09-03T16:04:01.321Z,98894.25
2022-09-03T16:09:09.428Z,98884.50
2022-09-03T16:14:16.191Z,98891.28
2022-09-03T16:19:23.023Z,98883.69
2022-09-03T16:24:32.478Z,98888.31
2022-09-03T16:29:35.201Z,98886.44
2022-09-03T16:34:46.520Z,98893.50
2022-09-03T16:39:57.107Z,98895.97
2022-09-03T16:45:11.829Z,98900.28
2022-09-03T16:50:28.072Z,98890.03
2022-09-03T16:55:44.722Z,98896.00
2022-09-03T17:00:59.137Z,98899.03
2022-09-03T17:06:15.217Z,98904.69
2022-09-03T17:11:40.627Z,98904.16
2022-09-03T17:16:52.345Z,98913.97
2022-09-03T17:22:07.278Z,98902.03
2022-09-03T17:27:28.364Z,98922.66
2022-09-03T17:32:46.127Z,98934.28
2022-09-03T17:37:57.013Z,98943.53
2022-09-03T17:43:06.581Z,98952.50
2022-09-03T17:48:24.262Z,98951.88
2022-09-03T17:53:33.581Z,98962.88
2022-09-03T17:58:40.669Z,98980.28
2022-09-03T18:03:47.598Z,98985.13
2022-09-03T18:08:54.464Z,98999.25
2022-09-03T18:14:07.857Z,99012.03
2022-09-03T18:19:19.124Z,99019.22
2022-09-03T18:24:50.837Z,99025.94
2022-09-03T18:30:17.530Z,99037.16
2022-09-03T18:35:37.631Z,99042.44
2022-09-03T18:41:05.035Z,99054.66
2022-09-03T18:52:16.626Z,99059.03
2022-09-03T18:57:39.475Z,99053.78
2022-09-03T19:03:08.990Z,99049.03
2022-09-03T19:08:33.278Z,99045.81
2022-09-03T19:13:55.097Z,99050.09
2022-09-03T19:19:34.929Z,99050.06
2022-09-03T19:24:55.062Z,99055.16
2022-09-03T19:30:22.743Z,99060.91
2022-09-03T19:35:49.405Z,99065.19
2022-09-03T19:41:18.057Z,99081.34
2022-09-03T19:46:48.260Z,99088.94
2022-09-03T19:52:16.287Z,99090.09
2022-09-03T19:57:37.425Z,99090.25
2022-09-03T20:02:58.167Z,99101.66
2022-09-03T20:08:19.732Z,99107.31
2022-09-03T20:13:22.512Z,99111.78
2022-09-03T20:18:34.788Z,99117.13
2022-09-03T20:23:44.522Z,99117.97
2022-09-03T20:29:00.701Z,99128.44
2022-09-03T20:34:11.568Z,99124.59
2022-09-03T20:39:33.437Z,99128.81
2022-09-03T20:44:47.508Z,99125.31
2022-09-03T20:49:54.268Z,99122.81
2022-09-03T20:55:06.275Z,99124.03
2022-09-03T21:00:12.564Z,99130.28
2022-09-03T21:05:20.395Z,99134.53
2022-09-03T21:10:31.828Z,99134.41
2022-09-03T21:15:43.459Z,99129.13
2022-09-03T21:20:48.631Z,99129.97
2022-09-03T21:26:00.314Z,99133.72
2022-09-03T21:31:11.485Z,99134.19
2022-09-03T21:36:17.652Z,99131.00
2022-09-03T21:41:27.334Z,99129.75
2022-09-03T21:46:33.692Z,99141.16
2022-09-03T21:51:39.826Z,99143.97
2022-09-03T21:57:03.148Z,99141.66
2022-09-03T22:02:09.727Z,99144.09
2022-09-03T22:07:17.363Z,99148.34
2022-09-03T22:12:24.810Z,99152.09
2022-09-03T22:17:31.698Z,99146.38
2022-09-03T22:22:40.738Z,99148.13
2022-09-03T22:27:48.739Z,99151.06
2022-09-03T22:32:59.658Z,99145.66
2022-09-03T22:38:18.422Z,99145.22
2022-09-03T22:43:37.079Z,99148.03
2022-09-03T22:49:09.258Z,99157.44
2022-09-03T22:54:21.921Z,99161.69
2022-09-03T22:59:30.261Z,99161.09
2022-09-03T23:04:38.229Z,99164.03
2022-09-03T23:09:42.011Z,99177.78
2022-09-03T23:14:51.203Z,99173.97
2022-09-03T23:19:58.660Z,99173.16
2022-09-03T23:25:05.498Z,99185.59
2022-09-03T23:30:10.334Z,99184.81
2022-09-03T23:35:17.716Z,99184.78
2022-09-03T23:40:32.946Z,99184.06
2022-09-03T23:45:44.125Z,99186.41
2022-09-03T23:50:52.753Z,99195.09
2022-09-03T23:56:06.131Z,99193.44
